createdAt,value
2023-05-10T00:00:12.642Z,49.49
2023-05-10T00:02:44.887Z,49.70
2023-05-10T00:05:12.269Z,49.63
2023-05-10T00:07:39.631Z,49.88
2023-05-10T00:10:07.193Z,49.89
2023-05-10T00:12:34.698Z,49.74
2023-05-10T00:15:02.083Z,49.88
2023-05-10T00:17:29.358Z,50.16
2023-05-10T00:19:56.634Z,50.36
2023-05-10T00:22:24.190Z,50.39
2023-05-10T00:24:51.579Z,50.29
2023-05-10T00:27:19.133Z,50.75
2023-05-10T00:29:46.423Z,50.87
2023-05-10T00:32:15.181Z,50.85
2023-05-10T00:34:42.540Z,50.99
2023-05-10T00:37:09.924Z,51.17
2023-05-10T00:39:37.368Z,51.20
2023-05-10T00:42:05.656Z,51.24
2023-05-10T00:44:34.091Z,51.49
2023-05-10T00:47:01.765Z,51.41
2023-05-10T00:49:29.984Z,51.46
2023-05-10T00:51:57.626Z,51.38
2023-05-10T00:54:25.280Z,51.57
2023-05-10T00:56:53.125Z,51.58
2023-05-10T00:59:21.251Z,51.51
2023-05-10T01:01:48.794Z,51.66
2023-05-10T01:04:16.445Z,51.82
2023-05-10T01:06:44.238Z,51.76
2023-05-10T01:09:12.874Z,51.65
2023-05-10T01:11:41.199Z,51.45
2023-05-10T01:14:09.081Z,51.81
2023-05-10T01:16:42.111Z,52.01
2023-05-10T01:19:18.772Z,51.85
2023-05-10T01:22:11.305Z,51.92
2023-05-10T01:25:11.480Z,51.66
2023-05-10T01:28:00.265Z,51.90
2023-05-10T01:30:58.530Z,51.86
2023-05-10T01:33:44.304Z,51.84
2023-05-10T01:36:27.395Z,52.16
2023-05-10T01:39:09.390Z,52.66
2023-05-10T01:41:59.937Z,52.49
2023-05-10T01:45:03.843Z,52.57
2023-05-10T01:47:38.603Z,53.04
2023-05-10T01:50:14.020Z,52.79
2023-05-10T01:52:46.574Z,53.20
2023-05-10T01:55:17.298Z,53.38
2023-05-10T01:57:47.571Z,53.15
2023-05-10T02:00:16.018Z,53.12
2023-05-10T02:02:48.921Z,53.38
2023-05-10T02:05:19.126Z,53.52
2023-05-10T02:07:46.999Z,53.19
2023-05-10T02:10:16.137Z,53.39
2023-05-10T02:12:47.180Z,53.90
2023-05-10T02:15:20.412Z,54.13
2023-05-10T02:17:48.496Z,54.09
2023-05-10T02:20:18.569Z,53.68
2023-05-10T02:22:48.563Z,53.65
2023-05-10T02:25:17.338Z,53.63
2023-05-10T02:27:46.039Z,53.74
2023-05-10T02:30:14.384Z,54.27
2023-05-10T02:32:43.326Z,54.11
2023-05-10T02:35:12.051Z,54.22
2023-05-10T02:37:41.284Z,54.25
2023-05-10T02:40:09.846Z,54.45
2023-05-10T02:42:39.386Z,54.39
2023-05-10T02:45:12.404Z,54.45
2023-05-10T02:47:40.496Z,54.14
2023-05-10T02:50:08.548Z,53.93
2023-05-10T02:52:43.680Z,54.15
2023-05-10T02:55:13.314Z,54.48
2023-05-10T02:57:47.920Z,54.39
2023-05-10T03:00:15.506Z,54.34
2023-05-10T03:02:43.162Z,54.32
2023-05-10T03:05:10.631Z,54.27
2023-05-10T03:07:38.125Z,54.67
2023-05-10T03:10:06.484Z,54.91
2023-05-10T03:12:54.303Z,54.92
2023-05-10T03:15:43.629Z,54.97
2023-05-10T03:18:17.232Z,54.81
2023-05-10T03:20:48.552Z,55.31
2023-05-10T03:23:18.979Z,55.42
2023-05-10T03:25:49.293Z,55.56
2023-05-10T03:28:18.098Z,55.44
2023-05-10T03:30:46.949Z,55.07
2023-05-10T03:33:15.152Z,54.77
2023-05-10T03:35:47.035Z,55.41
2023-05-10T03:38:15.283Z,55.25
2023-05-10T03:40:42.618Z,55.29
2023-05-10T03:43:10.021Z,55.00
2023-05-10T03:45:37.478Z,55.13
2023-05-10T03:48:05.307Z,55.18
2023-05-10T03:50:32.812Z,55.37
2023-05-10T03:53:00.231Z,55.22
2023-05-10T03:55:29.892Z,54.94
2023-05-10T03:57:57.511Z,55.42
2023-05-10T04:00:24.973Z,54.97
2023-05-10T04:02:55.060Z,55.62
2023-05-10T04:05:23.661Z,55.07
2023-05-10T04:07:52.851Z,55.12
2023-05-10T04:10:20.213Z,55.00
2023-05-10T04:12:47.640Z,55.54
2023-05-10T04:15:15.083Z,54.77
2023-05-10T04:17:42.437Z,55.06
2023-05-10T04:20:10.400Z,54.96
2023-05-10T04:22:37.758Z,54.74
2023-05-10T04:25:05.907Z,54.80
2023-05-10T04:27:33.364Z,54.81
2023-05-10T04:30:00.728Z,54.48
2023-05-10T04:32:28.066Z,55.00
2023-05-10T04:34:55.329Z,54.42
2023-05-10T04:37:24.173Z,54.21
2023-05-10T04:39:51.424Z,54.24
2023-05-10T04:42:18.867Z,53.72
2023-05-10T04:44:46.243Z,53.72
2023-05-10T04:47:14.340Z,53.61
2023-05-10T04:49:41.567Z,53.35
2023-05-10T04:52:08.785Z,53.67
2023-05-10T04:54:36.069Z,52.88
2023-05-10T04:57:03.445Z,53.24
2023-05-10T04:59:30.756Z,53.72
2023-05-10T05:01:57.987Z,53.42
2023-05-10T05:04:25.384Z,53.44
2023-05-10T05:06:54.028Z,53.12
2023-05-10T05:09:21.514Z,53.05
2023-05-10T05:11:48.858Z,52.93
2023-05-10T05:14:16.228Z,53.34
2023-05-10T05:16:43.542Z,52.52
2023-05-10T05:19:10.845Z,52.06
2023-05-10T05:21:38.560Z,52.46
2023-05-10T05:24:06.269Z,52.80
2023-05-10T05:26:33.635Z,52.28
2023-05-10T05:29:00.916Z,52.60
2023-05-10T05:31:28.340Z,52.22
2023-05-10T05:33:56.568Z,52.07
2023-05-10T05:36:23.983Z,51.49
2023-05-10T05:38:51.395Z,51.67
2023-05-10T05:41:18.806Z,51.98
2023-05-10T05:43:46.156Z,50.65
2023-05-10T05:46:14.564Z,51.12
2023-05-10T05:48:41.969Z,51.38
2023-05-10T05:51:09.339Z,51.09
2023-05-10T05:53:36.598Z,51.32
2023-05-10T05:56:04.863Z,51.00
2023-05-10T05:58:32.234Z,50.64
2023-05-10T06:00:59.578Z,50.29
2023-05-10T06:03:27.077Z,50.46
2023-05-10T06:05:54.412Z,50.07
2023-05-10T06:08:21.838Z,49.95
2023-05-10T06:10:49.241Z,50.02
2023-05-10T06:13:16.738Z,49.40
2023-05-10T06:15:44.110Z,49.57
2023-05-10T06:18:11.233Z,49.33
2023-05-10T06:20:38.862Z,48.23
2023-05-10T06:23:06.209Z,48.26
2023-05-10T06:25:33.585Z,47.72
2023-05-10T06:28:01.124Z,47.14
2023-05-10T06:30:30.317Z,47.00
2023-05-10T06:32:58.203Z,47.37
2023-05-10T06:35:25.793Z,47.05
2023-05-10T06:37:53.498Z,46.61
2023-05-10T06:40:21.109Z,46.95
2023-05-10T06:42:49.507Z,46.81
2023-05-10T06:45:17.663Z,45.95
2023-05-10T06:47:45.214Z,45.11
2023-05-10T06:50:12.893Z,45.60
2023-05-10T06:52:40.373Z,44.78
2023-05-10T06:55:08.271Z,44.01
2023-05-10T06:57:35.810Z,43.88
2023-05-10T07:00:06.043Z,43.20
2023-05-10T07:02:33.787Z,43.64
2023-05-10T07:05:03.168Z,43.87
2023-05-10T07:07:31.100Z,44.10
2023-05-10T07:09:58.916Z,43.80
2023-05-10T07:12:26.883Z,42.52
2023-05-10T07:14:54.412Z,43.71
2023-05-10T07:17:22.014Z,43.43
2023-05-10T07:19:49.651Z,42.50
2023-05-10T07:22:18.035Z,41.72
2023-05-10T07:24:45.468Z,41.34
2023-05-10T07:27:14.181Z,40.89
2023-05-10T07:29:41.636Z,41.01
2023-05-10T07:32:09.147Z,41.54
2023-05-10T07:34:36.605Z,40.99
2023-05-10T07:37:04.038Z,41.69
2023-05-10T07:39:31.459Z,40.76
2023-05-10T07:41:58.870Z,40.64
2023-05-10T07:44:26.456Z,40.74
2023-05-10T07:46:53.999Z,38.89
2023-05-10T07:49:21.454Z,39.69
2023-05-10T07:51:49.068Z,40.19
2023-05-10T07:54:16.501Z,39.88
2023-05-10T07:56:48.192Z,38.76
2023-05-10T07:59:18.983Z,38.41
2023-05-10T08:01:46.455Z,38.15
2023-05-10T08:04:14.060Z,38.25
2023-05-10T08:06:41.697Z,38.24
2023-05-10T08:09:09.841Z,38.04
2023-05-10T08:11:37.201Z,38.18
2023-05-10T08:14:04.638Z,37.26
2023-05-10T08:16:32.061Z,38.10
2023-05-10T08:18:59.493Z,37.62
2023-05-10T08:21:27.491Z,38.31
2023-05-10T08:23:54.902Z,38.29
2023-05-10T08:26:22.913Z,37.40
2023-05-10T08:28:50.221Z,36.42
2023-05-10T08:31:17.705Z,37.26
2023-05-10T08:33:45.049Z,36.67
2023-05-10T08:36:12.509Z,36.17
2023-05-10T08:38:39.810Z,36.86
2023-05-10T08:41:07.750Z,37.18
2023-05-10T08:43:37.782Z,36.37
2023-05-10T08:46:06.796Z,36.26
2023-05-10T08:48:36.693Z,36.16
2023-05-10T08:51:05.197Z,35.72
2023-05-10T08:53:34.379Z,35.60
2023-05-10T08:56:05.288Z,36.30
2023-05-10T08:58:33.148Z,35.79
2023-05-10T09:01:02.251Z,35.46
2023-05-10T09:03:29.895Z,35.81
2023-05-10T09:05:57.452Z,34.52
2023-05-10T09:08:28.255Z,35.25
2023-05-10T09:10:59.259Z,35.48
2023-05-10T09:13:27.214Z,35.26
2023-05-10T09:15:54.989Z,35.30
2023-05-10T09:18:22.433Z,35.11
2023-05-10T09:20:50.604Z,34.94
2023-05-10T09:23:17.978Z,34.49
2023-05-10T09:25:45.420Z,34.15
2023-05-10T09:28:13.379Z,34.31
2023-05-10T09:30:40.931Z,33.64
2023-05-10T09:33:09.284Z,33.87
2023-05-10T09:35:37.283Z,33.33
2023-05-10T09:38:06.258Z,33.28
2023-05-10T09:40:33.676Z,33.24
2023-05-10T09:43:10.061Z,33.33
2023-05-10T09:45:39.123Z,33.23
2023-05-10T09:48:07.845Z,32.62
2023-05-10T09:50:35.608Z,32.19
2023-05-10T09:53:04.878Z,33.38
2023-05-10T09:55:47.184Z,32.90
2023-05-10T09:58:15.506Z,33.02
2023-05-10T10:00:49.084Z,31.49
2023-05-10T10:03:18.459Z,32.13
2023-05-10T10:05:47.256Z,33.03
2023-05-10T10:08:15.454Z,31.43
2023-05-10T10:10:46.520Z,32.10
2023-05-10T10:13:14.610Z,32.60
2023-05-10T10:15:43.766Z,32.23
2023-05-10T10:18:16.550Z,31.40
2023-05-10T10:20:44.043Z,31.69
2023-05-10T10:23:11.366Z,31.67
2023-05-10T10:25:39.471Z,32.06
2023-05-10T10:28:36.860Z,30.53
2023-05-10T10:31:20.411Z,30.90
2023-05-10T10:34:10.744Z,31.09
2023-05-10T10:36:41.787Z,31.20
2023-05-10T10:39:13.112Z,30.83
2023-05-10T10:41:53.750Z,31.82
2023-05-10T10:44:26.506Z,31.49
2023-05-10T10:47:12.739Z,32.27
2023-05-10T10:49:43.062Z,33.06
2023-05-10T10:52:24.867Z,32.71
2023-05-10T10:54:53.926Z,32.67
2023-05-10T10:57:24.677Z,31.81
2023-05-10T10:59:52.139Z,31.80
2023-05-10T11:02:50.109Z,32.17
2023-05-10T11:05:36.700Z,32.68
2023-05-10T11:08:16.096Z,32.59
2023-05-10T11:11:10.717Z,32.33
2023-05-10T11:13:43.485Z,32.82
2023-05-10T11:16:17.684Z,31.71
2023-05-10T11:19:03.383Z,31.39
2023-05-10T11:21:35.119Z,30.65
2023-05-10T11:24:07.080Z,30.71
2023-05-10T11:26:38.450Z,30.86
2023-05-10T11:29:06.275Z,32.01
2023-05-10T11:31:34.101Z,31.08
2023-05-10T11:34:03.142Z,31.34
2023-05-10T11:36:35.076Z,31.11
2023-05-10T11:39:02.398Z,30.72
2023-05-10T11:41:31.159Z,31.64
2023-05-10T11:43:59.288Z,32.51
2023-05-10T11:46:28.726Z,32.12
2023-05-10T11:49:02.954Z,31.45
2023-05-10T11:51:30.401Z,31.79
2023-05-10T11:53:58.556Z,32.73
2023-05-10T11:56:28.234Z,32.60
2023-05-10T11:58:57.980Z,32.56
2023-05-10T12:01:27.654Z,31.51
2023-05-10T12:03:56.551Z,32.54
2023-05-10T12:06:24.355Z,32.57
2023-05-10T12:08:54.896Z,32.40
2023-05-10T12:11:26.627Z,33.08
2023-05-10T12:13:54.383Z,33.32
2023-05-10T12:16:23.556Z,32.80
2023-05-10T12:18:52.364Z,32.95
2023-05-10T12:21:21.152Z,32.53
2023-05-10T12:23:51.357Z,33.23
2023-05-10T12:26:19.012Z,32.49
2023-05-10T12:28:46.548Z,33.25
2023-05-10T12:31:14.007Z,33.70
2023-05-10T12:33:45.771Z,34.20
2023-05-10T12:36:15.385Z,33.78
2023-05-10T12:38:44.973Z,33.75
2023-05-10T12:41:19.353Z,33.04
2023-05-10T12:43:47.666Z,32.95
2023-05-10T12:46:19.809Z,33.62
2023-05-10T12:48:57.565Z,32.86
2023-05-10T12:51:31.883Z,32.87
2023-05-10T12:53:59.145Z,33.20
2023-05-10T12:56:26.920Z,33.70
2023-05-10T12:58:54.289Z,33.42
2023-05-10T13:01:21.790Z,33.70
2023-05-10T13:03:49.231Z,33.14
2023-05-10T13:06:16.578Z,33.17
2023-05-10T13:08:44.169Z,32.63
2023-05-10T13:11:11.706Z,32.72
2023-05-10T13:13:39.303Z,33.30
2023-05-10T13:16:06.907Z,33.17
2023-05-10T13:18:34.390Z,33.16
2023-05-10T13:21:01.806Z,32.88
2023-05-10T13:23:29.136Z,32.33
2023-05-10T13:25:56.652Z,32.13
2023-05-10T13:28:23.896Z,32.60
2023-05-10T13:30:51.611Z,32.66
2023-05-10T13:33:19.068Z,32.62
2023-05-10T13:35:46.664Z,33.12
2023-05-10T13:38:14.927Z,33.33
2023-05-10T13:40:42.418Z,32.78
2023-05-10T13:43:09.853Z,32.96
2023-05-10T13:45:37.299Z,32.88
2023-05-10T13:48:05.035Z,32.81
2023-05-10T13:50:32.777Z,33.58
2023-05-10T13:53:00.193Z,32.60
2023-05-10T13:58:12.811Z,33.11
2023-05-10T14:00:40.469Z,33.73
2023-05-10T14:03:10.522Z,33.09
2023-05-10T14:05:38.505Z,33.42
2023-05-10T14:08:06.255Z,32.76
2023-05-10T14:10:34.122Z,33.29
2023-05-10T14:13:01.720Z,33.02
2023-05-10T14:15:29.463Z,33.26
2023-05-10T14:17:57.216Z,32.97
2023-05-10T14:20:24.898Z,32.69
2023-05-10T14:22:52.318Z,33.27
2023-05-10T14:25:20.192Z,33.09
2023-05-10T14:27:48.519Z,33.23
2023-05-10T14:30:16.228Z,33.33
2023-05-10T14:32:44.054Z,33.38
2023-05-10T14:35:13.393Z,33.34
2023-05-10T14:37:40.886Z,33.07
2023-05-10T14:40:09.099Z,33.23
2023-05-10T14:42:36.703Z,32.88
2023-05-10T14:45:05.023Z,32.97
2023-05-10T14:47:32.409Z,33.20
2023-05-10T14:49:59.823Z,33.67
2023-05-10T14:55:12.539Z,33.77
2023-05-10T14:57:39.989Z,33.44
2023-05-10T15:00:08.490Z,33.00
2023-05-10T15:02:36.524Z,32.74
2023-05-10T15:05:04.949Z,33.02
2023-05-10T15:07:32.982Z,33.03
2023-05-10T15:10:00.622Z,33.08
2023-05-10T15:12:28.344Z,33.20
2023-05-10T15:14:56.007Z,33.65
2023-05-10T15:17:23.764Z,33.70
2023-05-10T15:19:51.486Z,33.17
2023-05-10T15:22:19.184Z,33.74
2023-05-10T15:24:46.603Z,34.15
2023-05-10T15:27:14.119Z,34.09
2023-05-10T15:29:41.749Z,33.66
2023-05-10T15:32:09.164Z,33.61
2023-05-10T15:34:37.280Z,34.05
2023-05-10T15:37:04.674Z,34.33
2023-05-10T15:39:31.943Z,34.38
2023-05-10T15:41:59.466Z,34.03
2023-05-10T15:44:26.778Z,33.81
2023-05-10T15:46:54.131Z,33.94
2023-05-10T15:49:21.614Z,33.76
2023-05-10T15:51:49.640Z,34.10
2023-05-10T15:54:17.098Z,34.13
2023-05-10T15:56:44.946Z,34.57
2023-05-10T15:59:12.307Z,34.79
2023-05-10T16:01:39.906Z,34.93
2023-05-10T16:04:07.475Z,34.54
2023-05-10T16:06:36.249Z,34.36
2023-05-10T16:09:04.134Z,34.84
2023-05-10T16:11:31.692Z,34.94
2023-05-10T16:13:59.052Z,35.33
2023-05-10T16:16:26.798Z,35.28
2023-05-10T16:18:54.424Z,35.33
2023-05-10T16:21:22.631Z,35.42
2023-05-10T16:23:50.124Z,35.53
2023-05-10T16:26:17.732Z,35.63
2023-05-10T16:28:45.172Z,36.29
2023-05-10T16:31:12.908Z,36.29
2023-05-10T16:33:40.724Z,35.94
2023-05-10T16:36:08.228Z,35.71
2023-05-10T16:38:35.618Z,35.58
2023-05-10T16:41:03.810Z,35.81
2023-05-10T16:43:32.705Z,36.26
2023-05-10T16:46:00.393Z,36.02
2023-05-10T16:48:28.096Z,35.84
2023-05-10T16:50:55.741Z,35.95
2023-05-10T16:53:23.285Z,35.81
2023-05-10T16:55:50.998Z,35.59
2023-05-10T16:58:18.579Z,35.82
2023-05-10T17:00:47.057Z,35.89
2023-05-10T17:03:14.700Z,35.99
2023-05-10T17:05:43.315Z,36.34
2023-05-10T17:08:11.120Z,36.19
2023-05-10T17:10:41.795Z,35.85
2023-05-10T17:13:10.396Z,36.17
2023-05-10T17:15:39.343Z,36.17
2023-05-10T17:18:07.883Z,36.25
2023-05-10T17:20:36.200Z,35.88
2023-05-10T17:23:03.748Z,36.18
2023-05-10T17:25:31.357Z,36.15
2023-05-10T17:27:58.654Z,36.55
2023-05-10T17:30:28.465Z,36.23
2023-05-10T17:32:56.523Z,36.71
2023-05-10T17:35:24.374Z,36.58
2023-05-10T17:37:52.076Z,36.38
2023-05-10T17:40:19.614Z,36.25
2023-05-10T17:42:47.331Z,36.61
2023-05-10T17:45:15.689Z,36.54
2023-05-10T17:47:43.567Z,36.68
2023-05-10T17:50:11.435Z,36.66
2023-05-10T17:52:39.011Z,36.83
2023-05-10T17:55:07.010Z,36.84
2023-05-10T17:57:35.085Z,36.64
2023-05-10T18:00:04.104Z,36.45
2023-05-10T18:02:33.133Z,36.31
2023-05-10T18:05:02.046Z,36.49
2023-05-10T18:07:30.313Z,36.84
2023-05-10T18:09:58.775Z,36.85
2023-05-10T18:12:26.546Z,37.02
2023-05-10T18:14:53.940Z,36.83
2023-05-10T18:17:21.269Z,37.22
2023-05-10T18:19:52.704Z,37.04
2023-05-10T18:22:20.771Z,37.11
2023-05-10T18:24:48.339Z,37.44
2023-05-10T18:27:15.818Z,37.27
2023-05-10T18:29:43.289Z,37.69
2023-05-10T18:32:10.898Z,37.41
2023-05-10T18:34:38.325Z,37.63
2023-05-10T18:37:07.925Z,37.52
2023-05-10T18:39:37.686Z,37.48
2023-05-10T18:42:09.300Z,37.44
2023-05-10T18:44:37.078Z,37.68
2023-05-10T18:47:04.606Z,37.89
2023-05-10T18:49:32.437Z,37.94
2023-05-10T18:52:00.308Z,37.89
2023-05-10T18:54:27.947Z,37.88
2023-05-10T18:56:58.096Z,38.08
2023-05-10T18:59:26.008Z,38.31
2023-05-10T19:01:54.955Z,38.10
2023-05-10T19:04:24.060Z,38.19
2023-05-10T19:06:51.912Z,38.15
2023-05-10T19:09:20.434Z,38.43
2023-05-10T19:11:48.883Z,38.33
2023-05-10T19:14:16.562Z,38.36
2023-05-10T19:16:44.579Z,38.54
2023-05-10T19:19:14.273Z,38.56
2023-05-10T19:21:43.047Z,38.61
2023-05-10T19:24:10.819Z,38.82
2023-05-10T19:26:38.522Z,38.96
2023-05-10T19:29:06.362Z,39.00
2023-05-10T19:32:13.445Z,39.12
2023-05-10T19:34:44.443Z,39.21
2023-05-10T19:37:12.410Z,39.32
2023-05-10T19:39:40.031Z,39.31
2023-05-10T19:42:07.398Z,39.40
2023-05-10T19:44:35.293Z,39.51
2023-05-10T19:47:04.931Z,39.66
2023-05-10T19:49:32.362Z,39.82
2023-05-10T19:51:59.650Z,39.96
2023-05-10T19:54:27.122Z,40.07
2023-05-10T19:56:54.352Z,39.93
2023-05-10T19:59:21.812Z,40.05
2023-05-10T20:01:49.376Z,40.20
2023-05-10T20:04:16.917Z,40.57
2023-05-10T20:06:44.433Z,40.74
2023-05-10T20:09:11.873Z,40.59
2023-05-10T20:11:39.419Z,40.85
2023-05-10T20:14:06.712Z,40.68
2023-05-10T20:16:34.117Z,40.81
2023-05-10T20:19:01.703Z,41.30
2023-05-10T20:21:29.196Z,41.22
2023-05-10T20:23:56.976Z,41.28
2023-05-10T20:26:24.381Z,41.58
2023-05-10T20:28:51.778Z,42.13
2023-05-10T20:31:19.147Z,41.83
2023-05-10T20:33:46.562Z,42.37
2023-05-10T20:36:15.177Z,42.27
2023-05-10T20:38:42.488Z,42.73
2023-05-10T20:41:09.994Z,42.79
2023-05-10T20:43:37.965Z,43.00
2023-05-10T20:46:05.726Z,43.26
2023-05-10T20:48:33.384Z,43.24
2023-05-10T20:51:02.411Z,43.14
2023-05-10T20:53:30.064Z,43.60
2023-05-10T20:55:57.596Z,43.58
2023-05-10T20:58:24.982Z,43.63
2023-05-10T21:00:52.465Z,44.15
2023-05-10T21:03:19.922Z,43.41
2023-05-10T21:05:47.531Z,43.90
2023-05-10T21:08:15.057Z,44.40
2023-05-10T21:10:42.477Z,43.88
2023-05-10T21:13:09.940Z,44.04
2023-05-10T21:15:37.336Z,44.29
2023-05-10T21:18:05.229Z,44.62
2023-05-10T21:20:32.564Z,44.23
2023-05-10T21:22:59.897Z,44.74
2023-05-10T21:25:27.412Z,44.39
2023-05-10T21:27:55.366Z,44.81
2023-05-10T21:30:22.836Z,44.95
2023-05-10T21:32:50.176Z,44.64
2023-05-10T21:35:17.628Z,44.70
2023-05-10T21:37:44.878Z,44.82
2023-05-10T21:40:13.143Z,44.71
2023-05-10T21:42:40.581Z,44.58
2023-05-10T21:45:08.311Z,44.79
2023-05-10T21:47:35.754Z,44.90
2023-05-10T21:50:03.147Z,44.91
2023-05-10T21:52:30.440Z,45.56
2023-05-10T21:54:57.722Z,45.06
2023-05-10T21:57:25.274Z,44.93
2023-05-10T21:59:52.753Z,45.74
2023-05-10T22:02:20.198Z,45.13
2023-05-10T22:04:47.704Z,45.05
2023-05-10T22:07:17.240Z,45.52
2023-05-10T22:09:44.694Z,45.75
2023-05-10T22:12:13.050Z,45.51
2023-05-10T22:14:40.534Z,45.50
2023-05-10T22:17:08.344Z,45.96
2023-05-10T22:19:35.925Z,45.94
2023-05-10T22:22:03.766Z,45.77
2023-05-10T22:24:32.037Z,46.58
2023-05-10T22:26:59.673Z,46.01
2023-05-10T22:29:27.582Z,46.38
2023-05-10T22:31:55.071Z,46.48
2023-05-10T22:34:22.558Z,45.75
2023-05-10T22:36:50.703Z,46.10
2023-05-10T22:39:18.134Z,46.39
2023-05-10T22:41:45.437Z,46.02
2023-05-10T22:44:12.686Z,46.50
2023-05-10T22:46:40.302Z,46.06
2023-05-10T22:49:07.853Z,46.08
2023-05-10T22:51:35.463Z,47.01
2023-05-10T22:54:02.933Z,46.64
2023-05-10T22:56:31.407Z,47.02
2023-05-10T22:58:59.091Z,47.29
2023-05-10T23:01:26.580Z,47.20
2023-05-10T23:03:54.288Z,46.71
2023-05-10T23:06:21.473Z,47.17
2023-05-10T23:08:49.561Z,47.60
2023-05-10T23:11:17.346Z,47.21
2023-05-10T23:13:44.946Z,47.04
2023-05-10T23:16:12.450Z,47.58
2023-05-10T23:18:39.928Z,47.64
2023-05-10T23:21:07.304Z,47.15
2023-05-10T23:23:34.987Z,47.36
2023-05-10T23:26:02.619Z,47.44
2023-05-10T23:28:29.978Z,47.81
2023-05-10T23:30:58.757Z,47.49
2023-05-10T23:33:27.118Z,48.03
2023-05-10T23:35:55.399Z,47.76
2023-05-10T23:38:22.733Z,48.24
2023-05-10T23:40:50.951Z,47.93
2023-05-10T23:43:20.059Z,47.90
2023-05-10T23:45:55.458Z,47.85
2023-05-10T23:48:22.928Z,47.93
2023-05-10T23:50:50.366Z,48.26
2023-05-10T23:53:17.897Z,48.38
2023-05-10T23:55:45.922Z,48.64
2023-05-10T23:58:13.277Z,48.20
